sensor_id;sensor_type;location;lat;lon;timestamp;pressure;altitude;pressure_sealevel;temperature;humidity
64551;BME280;50945;44.472;-123.352;2023-08-06T00:00:28;100574.06;;;31.60;34.66
64551;BME280;50945;44.472;-123.352;2023-08-06T00:02:55;100578.94;;;31.32;35.19
64551;BME280;50945;44.472;-123.352;2023-08-06T00:05:21;100573.69;;;31.16;35.42
64551;BME280;50945;44.472;-123.352;2023-08-06T00:07:47;100577.38;;;31.03;35.81
64551;BME280;50945;44.472;-123.352;2023-08-06T00:10:14;100574.53;;;30.89;36.22
64551;BME280;50945;44.472;-123.352;2023-08-06T00:12:40;100585.97;;;30.70;36.58
64551;BME280;50945;44.472;-123.352;2023-08-06T00:15:07;100577.94;;;30.49;36.73
64551;BME280;50945;44.472;-123.352;2023-08-06T00:17:34;100585.50;;;30.21;37.23
64551;BME280;50945;44.472;-123.352;2023-08-06T00:20:02;100579.50;;;29.95;37.22
64551;BME280;50945;44.472;-123.352;2023-08-06T00:22:36;100582.94;;;29.78;37.46
64551;BME280;50945;44.472;-123.352;2023-08-06T00:25:04;100581.16;;;29.63;37.78
64551;BME280;50945;44.472;-123.352;2023-08-06T00:27:30;100587.97;;;29.43;38.32
64551;BME280;50945;44.472;-123.352;2023-08-06T00:29:58;100587.16;;;29.24;38.12
64551;BME280;50945;44.472;-123.352;2023-08-06T00:32:24;100583.63;;;29.13;38.71
64551;BME280;50945;44.472;-123.352;2023-08-06T00:34:50;100585.03;;;29.15;38.21
64551;BME280;50945;44.472;-123.352;2023-08-06T00:37:17;100590.91;;;29.19;38.63
64551;BME280;50945;44.472;-123.352;2023-08-06T00:39:44;100601.59;;;29.17;38.24
64551;BME280;50945;44.472;-123.352;2023-08-06T00:42:11;100600.34;;;29.04;38.37
64551;BME280;50945;44.472;-123.352;2023-08-06T00:44:37;100607.69;;;28.81;38.42
64551;BME280;50945;44.472;-123.352;2023-08-06T00:47:06;100600.72;;;28.54;39.04
64551;BME280;50945;44.472;-123.352;2023-08-06T00:49:36;100612.81;;;28.25;39.52
64551;BME280;50945;44.472;-123.352;2023-08-06T00:52:04;100602.47;;;27.92;40.01
64551;BME280;50945;44.472;-123.352;2023-08-06T00:54:31;100610.25;;;27.65;40.48
64551;BME280;50945;44.472;-123.352;2023-08-06T00:56:59;100619.38;;;27.47;40.86
64551;BME280;50945;44.472;-123.352;2023-08-06T00:59:27;100622.28;;;27.31;41.18
64551;BME280;50945;44.472;-123.352;2023-08-06T01:01:53;100627.66;;;27.18;41.27
64551;BME280;50945;44.472;-123.352;2023-08-06T01:04:19;100628.03;;;27.06;41.29
64551;BME280;50945;44.472;-123.352;2023-08-06T01:06:48;100631.47;;;26.92;41.58
64551;BME280;50945;44.472;-123.352;2023-08-06T01:15:11;100631.31;;;26.48;42.36
64551;BME280;50945;44.472;-123.352;2023-08-06T01:17:41;100629.97;;;26.35;42.43
64551;BME280;50945;44.472;-123.352;2023-08-06T01:20:08;100631.09;;;26.24;42.60
64551;BME280;50945;44.472;-123.352;2023-08-06T01:22:34;100633.63;;;26.15;42.49
64551;BME280;50945;44.472;-123.352;2023-08-06T01:25:00;100636.44;;;26.10;42.78
64551;BME280;50945;44.472;-123.352;2023-08-06T01:27:58;100637.56;;;26.09;43.18
64551;BME280;50945;44.472;-123.352;2023-08-06T01:30:27;100643.72;;;26.06;42.94
64551;BME280;50945;44.472;-123.352;2023-08-06T01:32:59;100642.59;;;26.02;43.02
64551;BME280;50945;44.472;-123.352;2023-08-06T01:35:27;100644.03;;;25.94;43.17
64551;BME280;50945;44.472;-123.352;2023-08-06T01:37:55;100650.41;;;25.89;43.01
64551;BME280;50945;44.472;-123.352;2023-08-06T01:40:22;100635.31;;;25.80;43.33
64551;BME280;50945;44.472;-123.352;2023-08-06T01:42:48;100633.06;;;25.72;43.37
64551;BME280;50945;44.472;-123.352;2023-08-06T01:45:14;100643.41;;;25.66;43.62
64551;BME280;50945;44.472;-123.352;2023-08-06T01:47:40;100649.56;;;25.63;43.64
64551;BME280;50945;44.472;-123.352;2023-08-06T01:50:07;100649.00;;;25.56;43.96
64551;BME280;50945;44.472;-123.352;2023-08-06T01:52:33;100652.66;;;25.51;44.06
64551;BME280;50945;44.472;-123.352;2023-08-06T01:54:59;100653.47;;;25.47;44.21
64551;BME280;50945;44.472;-123.352;2023-08-06T01:57:25;100654.00;;;25.43;44.29
64551;BME280;50945;44.472;-123.352;2023-08-06T01:59:51;100656.78;;;25.38;44.36
64551;BME280;50945;44.472;-123.352;2023-08-06T02:02:18;100658.22;;;25.36;44.52
64551;BME280;50945;44.472;-123.352;2023-08-06T02:04:44;100661.53;;;25.33;44.45
64551;BME280;50945;44.472;-123.352;2023-08-06T02:07:10;100661.25;;;25.29;44.63
64551;BME280;50945;44.472;-123.352;2023-08-06T02:09:36;100654.00;;;25.28;44.84
64551;BME280;50945;44.472;-123.352;2023-08-06T02:12:02;100657.34;;;25.30;44.93
64551;BME280;50945;44.472;-123.352;2023-08-06T02:14:29;100661.81;;;25.31;44.98
64551;BME280;50945;44.472;-123.352;2023-08-06T02:16:55;100657.91;;;25.32;44.99
64551;BME280;50945;44.472;-123.352;2023-08-06T02:19:21;100655.38;;;25.31;45.22
64551;BME280;50945;44.472;-123.352;2023-08-06T02:21:47;100655.94;;;25.33;45.15
64551;BME280;50945;44.472;-123.352;2023-08-06T02:24:13;100660.16;;;25.30;45.14
64551;BME280;50945;44.472;-123.352;2023-08-06T02:26:39;100662.94;;;25.25;45.36
64551;BME280;50945;44.472;-123.352;2023-08-06T02:29:06;100680.50;;;25.20;45.41
64551;BME280;50945;44.472;-123.352;2023-08-06T02:31:32;100681.06;;;25.12;45.92
64551;BME280;50945;44.472;-123.352;2023-08-06T02:33:58;100669.56;;;25.03;46.22
64551;BME280;50945;44.472;-123.352;2023-08-06T02:36:24;100680.16;;;24.96;46.25
64551;BME280;50945;44.472;-123.352;2023-08-06T02:38:52;100678.44;;;24.90;46.26
64551;BME280;50945;44.472;-123.352;2023-08-06T02:41:19;100678.13;;;24.86;46.31
64551;BME280;50945;44.472;-123.352;2023-08-06T02:43:45;100685.94;;;24.84;46.46
64551;BME280;50945;44.472;-123.352;2023-08-06T02:46:10;100682.31;;;24.79;47.63
64551;BME280;50945;44.472;-123.352;2023-08-06T02:48:37;100687.06;;;24.78;46.44
64551;BME280;50945;44.472;-123.352;2023-08-06T02:51:03;100695.72;;;24.77;46.42
64551;BME280;50945;44.472;-123.352;2023-08-06T02:53:29;100685.59;;;24.71;46.68
64551;BME280;50945;44.472;-123.352;2023-08-06T02:55:55;100695.94;;;24.70;46.72
64551;BME280;50945;44.472;-123.352;2023-08-06T02:58:21;100702.91;;;24.67;46.85
64551;BME280;50945;44.472;-123.352;2023-08-06T03:01:08;100706.78;;;24.61;47.92
64551;BME280;50945;44.472;-123.352;2023-08-06T03:03:34;100714.59;;;24.59;47.23
64551;BME280;50945;44.472;-123.352;2023-08-06T03:06:00;100704.25;;;24.60;47.49
64551;BME280;50945;44.472;-123.352;2023-08-06T03:08:27;100716.84;;;24.57;47.47
64551;BME280;50945;44.472;-123.352;2023-08-06T03:10:54;100715.91;;;24.52;47.62
64551;BME280;50945;44.472;-123.352;2023-08-06T03:13:20;100711.16;;;24.47;47.86
64551;BME280;50945;44.472;-123.352;2023-08-06T03:15:58;100716.38;;;24.38;48.29
64551;BME280;50945;44.472;-123.352;2023-08-06T03:18:25;100723.53;;;24.24;48.14
64551;BME280;50945;44.472;-123.352;2023-08-06T03:20:54;100710.28;;;24.09;48.45
64551;BME280;50945;44.472;-123.352;2023-08-06T03:23:20;100714.38;;;23.96;48.79
64551;BME280;50945;44.472;-123.352;2023-08-06T03:25:46;100725.16;;;23.87;49.05
64551;BME280;50945;44.472;-123.352;2023-08-06T03:28:13;100728.69;;;23.78;49.35
64551;BME280;50945;44.472;-123.352;2023-08-06T03:30:39;100731.94;;;23.69;49.51
64551;BME280;50945;44.472;-123.352;2023-08-06T03:33:05;100736.31;;;23.60;49.62
64551;BME280;50945;44.472;-123.352;2023-08-06T03:35:31;100730.63;;;23.50;49.82
64551;BME280;50945;44.472;-123.352;2023-08-06T03:37:58;100740.88;;;23.44;49.78
64551;BME280;50945;44.472;-123.352;2023-08-06T03:40:24;100741.63;;;23.34;50.00
64551;BME280;50945;44.472;-123.352;2023-08-06T03:42:49;100743.63;;;23.17;50.87
64551;BME280;50945;44.472;-123.352;2023-08-06T03:45:16;100737.97;;;23.12;50.00
64551;BME280;50945;44.472;-123.352;2023-08-06T03:47:42;100734.56;;;23.05;50.19
64551;BME280;50945;44.472;-123.352;2023-08-06T03:50:08;100745.59;;;23.00;50.48
64551;BME280;50945;44.472;-123.352;2023-08-06T03:52:34;100743.81;;;22.93;50.68
64551;BME280;50945;44.472;-123.352;2023-08-06T03:55:00;100747.84;;;22.81;52.68
64551;BME280;50945;44.472;-123.352;2023-08-06T03:57:26;100740.59;;;22.80;50.70
64551;BME280;50945;44.472;-123.352;2023-08-06T03:59:52;100746.34;;;22.73;53.78
64551;BME280;50945;44.472;-123.352;2023-08-06T04:02:18;100752.75;;;22.73;50.80
64551;BME280;50945;44.472;-123.352;2023-08-06T04:04:44;100758.56;;;22.72;50.92
64551;BME280;50945;44.472;-123.352;2023-08-06T04:07:10;100762.81;;;22.74;51.12
64551;BME280;50945;44.472;-123.352;2023-08-06T04:09:55;100771.41;;;22.73;52.04
64551;BME280;50945;44.472;-123.352;2023-08-06T04:12:21;100774.44;;;22.71;51.18
64551;BME280;50945;44.472;-123.352;2023-08-06T04:14:47;100786.63;;;22.65;53.99
64551;BME280;50945;44.472;-123.352;2023-08-06T04:17:13;100788.81;;;22.63;51.17
64551;BME280;50945;44.472;-123.352;2023-08-06T04:19:39;100783.34;;;22.51;54.20
64551;BME280;50945;44.472;-123.352;2023-08-06T04:22:05;100780.81;;;22.50;51.43
64551;BME280;50945;44.472;-123.352;2023-08-06T04:24:32;100785.56;;;22.49;51.59
64551;BME280;50945;44.472;-123.352;2023-08-06T04:26:58;100793.91;;;22.49;51.86
64551;BME280;50945;44.472;-123.352;2023-08-06T04:29:24;100798.03;;;22.47;55.35
64551;BME280;50945;44.472;-123.352;2023-08-06T04:31:50;100801.06;;;22.45;51.85
64551;BME280;50945;44.472;-123.352;2023-08-06T04:34:16;100798.81;;;22.42;52.05
64551;BME280;50945;44.472;-123.352;2023-08-06T04:36:42;100812.09;;;22.40;52.28
64551;BME280;50945;44.472;-123.352;2023-08-06T04:39:08;100812.53;;;22.32;55.84
64551;BME280;50945;44.472;-123.352;2023-08-06T04:41:34;100825.09;;;22.34;52.35
64551;BME280;50945;44.472;-123.352;2023-08-06T04:44:00;100821.25;;;22.35;52.52
64551;BME280;50945;44.472;-123.352;2023-08-06T04:46:26;100828.47;;;22.36;52.59
64551;BME280;50945;44.472;-123.352;2023-08-06T04:48:52;100826.97;;;22.29;55.35
64551;BME280;50945;44.472;-123.352;2023-08-06T04:51:18;100821.16;;;22.30;52.46
64551;BME280;50945;44.472;-123.352;2023-08-06T04:53:44;100822.38;;;22.23;55.95
64551;BME280;50945;44.472;-123.352;2023-08-06T04:56:10;100820.19;;;22.25;52.63
64551;BME280;50945;44.472;-123.352;2023-08-06T04:58:36;100820.56;;;22.28;52.75
64551;BME280;50945;44.472;-123.352;2023-08-06T05:01:02;100821.16;;;22.30;52.83
64551;BME280;50945;44.472;-123.352;2023-08-06T05:03:29;100823.69;;;22.32;53.02
64551;BME280;50945;44.472;-123.352;2023-08-06T05:05:56;100827.31;;;22.32;52.82
64551;BME280;50945;44.472;-123.352;2023-08-06T05:08:22;100818.59;;;22.29;52.92
64551;BME280;50945;44.472;-123.352;2023-08-06T05:10:48;100824.88;;;22.24;53.12
64551;BME280;50945;44.472;-123.352;2023-08-06T05:13:14;100824.47;;;22.15;53.20
64551;BME280;50945;44.472;-123.352;2023-08-06T05:15:41;100820.50;;;22.11;53.70
64551;BME280;50945;44.472;-123.352;2023-08-06T05:18:09;100818.19;;;22.08;53.70
64551;BME280;50945;44.472;-123.352;2023-08-06T05:20:42;100829.59;;;22.07;54.02
64551;BME280;50945;44.472;-123.352;2023-08-06T05:23:08;100829.00;;;22.05;53.97
64551;BME280;50945;44.472;-123.352;2023-08-06T05:25:34;100825.28;;;21.99;57.70
64551;BME280;50945;44.472;-123.352;2023-08-06T05:28:02;100828.16;;;22.04;53.76
64551;BME280;50945;44.472;-123.352;2023-08-06T05:30:28;100831.44;;;22.01;53.89
64551;BME280;50945;44.472;-123.352;2023-08-06T05:32:55;100833.38;;;22.00;54.18
64551;BME280;50945;44.472;-123.352;2023-08-06T05:35:21;100824.44;;;21.98;54.12
64551;BME280;50945;44.472;-123.352;2023-08-06T05:37:48;100828.31;;;21.97;54.39
64551;BME280;50945;44.472;-123.352;2023-08-06T05:40:15;100829.06;;;21.93;54.32
64551;BME280;50945;44.472;-123.352;2023-08-06T05:42:41;100835.25;;;21.83;56.64
64551;BME280;50945;44.472;-123.352;2023-08-06T05:45:08;100830.81;;;21.82;54.53
64551;BME280;50945;44.472;-123.352;2023-08-06T05:47:35;100830.22;;;21.80;54.51
64551;BME280;50945;44.472;-123.352;2023-08-06T05:50:04;100836.16;;;21.72;57.30
64551;BME280;50945;44.472;-123.352;2023-08-06T05:52:30;100834.72;;;21.69;54.50
64551;BME280;50945;44.472;-123.352;2023-08-06T05:54:56;100831.09;;;21.69;54.79
64551;BME280;50945;44.472;-123.352;2023-08-06T05:57:22;100836.88;;;21.67;54.74
64551;BME280;50945;44.472;-123.352;2023-08-06T05:59:48;100842.63;;;21.60;58.10
64551;BME280;50945;44.472;-123.352;2023-08-06T06:02:14;100842.34;;;21.62;54.78
64551;BME280;50945;44.472;-123.352;2023-08-06T06:04:41;100842.63;;;21.60;55.19
64551;BME280;50945;44.472;-123.352;2023-08-06T06:07:08;100835.94;;;21.61;55.00
64551;BME280;50945;44.472;-123.352;2023-08-06T06:09:34;100847.06;;;21.61;55.11
64551;BME280;50945;44.472;-123.352;2023-08-06T06:12:00;100842.63;;;21.60;54.93
64551;BME280;50945;44.472;-123.352;2023-08-06T06:14:29;100840.56;;;21.56;55.16
64551;BME280;50945;44.472;-123.352;2023-08-06T06:16:55;100843.22;;;21.51;55.41
64551;BME280;50945;44.472;-123.352;2023-08-06T06:19:21;100843.84;;;21.41;56.14
64551;BME280;50945;44.472;-123.352;2023-08-06T06:21:47;100846.00;;;21.39;55.58
64551;BME280;50945;44.472;-123.352;2023-08-06T06:24:13;100845.28;;;21.32;56.14
64551;BME280;50945;44.472;-123.352;2023-08-06T06:26:39;100845.28;;;21.32;55.47
64551;BME280;50945;44.472;-123.352;2023-08-06T06:29:05;100839.13;;;21.30;55.81
64551;BME280;50945;44.472;-123.352;2023-08-06T06:31:31;100842.16;;;21.28;56.25
64551;BME280;50945;44.472;-123.352;2023-08-06T06:33:58;100846.28;;;21.25;56.16
64551;BME280;50945;44.472;-123.352;2023-08-06T06:36:23;100845.81;;;21.17;57.42
64551;BME280;50945;44.472;-123.352;2023-08-06T06:38:50;100847.50;;;21.18;56.27
64551;BME280;50945;44.472;-123.352;2023-08-06T06:41:16;100849.41;;;21.17;56.30
64551;BME280;50945;44.472;-123.352;2023-08-06T06:43:42;100849.94;;;21.14;56.41
64551;BME280;50945;44.472;-123.352;2023-08-06T06:46:08;100853.19;;;21.11;56.63
64551;BME280;50945;44.472;-123.352;2023-08-06T06:48:34;100859.22;;;21.08;56.90
64551;BME280;50945;44.472;-123.352;2023-08-06T06:51:00;100859.47;;;21.06;57.04
64551;BME280;50945;44.472;-123.352;2023-08-06T06:53:27;100855.84;;;21.06;57.08
64551;BME280;50945;44.472;-123.352;2023-08-06T06:56:02;100857.44;;;21.02;60.14
64551;BME280;50945;44.472;-123.352;2023-08-06T06:58:29;100855.84;;;21.06;56.85
64551;BME280;50945;44.472;-123.352;2023-08-06T07:00:55;100851.13;;;21.06;56.67
64551;BME280;50945;44.472;-123.352;2023-08-06T07:03:21;100862.13;;;21.01;60.25
64551;BME280;50945;44.472;-123.352;2023-08-06T07:05:48;100859.97;;;21.03;56.90
64551;BME280;50945;44.472;-123.352;2023-08-06T07:08:15;100861.88;;;21.03;56.78
64551;BME280;50945;44.472;-123.352;2023-08-06T07:10:41;100861.88;;;21.03;56.92
64551;BME280;50945;44.472;-123.352;2023-08-06T07:13:08;100864.66;;;21.03;57.41
64551;BME280;50945;44.472;-123.352;2023-08-06T07:15:35;100856.56;;;21.01;57.07
64551;BME280;50945;44.472;-123.352;2023-08-06T07:18:01;100863.22;;;21.00;57.16
64551;BME280;50945;44.472;-123.352;2023-08-06T07:20:27;100867.31;;;20.98;57.50
64551;BME280;50945;44.472;-123.352;2023-08-06T07:22:58;100869.72;;;20.94;57.38
64551;BME280;50945;44.472;-123.352;2023-08-06T07:25:25;100871.91;;;20.92;57.40
64551;BME280;50945;44.472;-123.352;2023-08-06T07:27:51;100871.53;;;20.88;57.74
64551;BME280;50945;44.472;-123.352;2023-08-06T07:30:17;100861.78;;;20.86;58.05
64551;BME280;50945;44.472;-123.352;2023-08-06T07:32:43;100860.66;;;20.87;58.08
64551;BME280;50945;44.472;-123.352;2023-08-06T07:35:09;100866.00;;;20.88;58.06
64551;BME280;50945;44.472;-123.352;2023-08-06T07:37:39;100868.53;;;20.90;58.04
64551;BME280;50945;44.472;-123.352;2023-08-06T07:40:05;100858.25;;;20.91;58.43
64551;BME280;50945;44.472;-123.352;2023-08-06T07:42:31;100861.03;;;20.91;58.16
64551;BME280;50945;44.472;-123.352;2023-08-06T07:44:58;100866.22;;;20.87;58.48
64551;BME280;50945;44.472;-123.352;2023-08-06T07:47:25;100863.31;;;20.82;58.59
64551;BME280;50945;44.472;-123.352;2023-08-06T07:49:52;100864.06;;;20.77;58.70
64551;BME280;50945;44.472;-123.352;2023-08-06T07:52:18;100854.25;;;20.75;58.66
64551;BME280;50945;44.472;-123.352;2023-08-06T07:54:44;100851.72;;;20.73;58.77
64551;BME280;50945;44.472;-123.352;2023-08-06T07:57:10;100851.84;;;20.66;62.98
64551;BME280;50945;44.472;-123.352;2023-08-06T07:59:36;100851.84;;;20.66;58.85
64551;BME280;50945;44.472;-123.352;2023-08-06T08:02:03;100851.25;;;20.64;58.68
64551;BME280;50945;44.472;-123.352;2023-08-06T08:04:29;100858.72;;;20.64;58.66
64551;BME280;50945;44.472;-123.352;2023-08-06T08:06:56;100862.84;;;20.61;58.70
64551;BME280;50945;44.472;-123.352;2023-08-06T08:09:22;100862.19;;;20.59;59.07
64551;BME280;50945;44.472;-123.352;2023-08-06T08:11:48;100865.22;;;20.58;59.26
64551;BME280;50945;44.472;-123.352;2023-08-06T08:14:15;100870.53;;;20.59;59.10
64551;BME280;50945;44.472;-123.352;2023-08-06T08:16:42;100858.56;;;20.59;59.19
64551;BME280;50945;44.472;-123.352;2023-08-06T08:19:08;100856.28;;;20.56;59.00
64551;BME280;50945;44.472;-123.352;2023-08-06T08:21:34;100872.06;;;20.55;59.26
64551;BME280;50945;44.472;-123.352;2023-08-06T08:24:01;100863.13;;;20.53;59.41
64551;BME280;50945;44.472;-123.352;2023-08-06T08:26:27;100869.16;;;20.50;59.25
64551;BME280;50945;44.472;-123.352;2023-08-06T08:28:53;100861.31;;;20.47;59.25
64551;BME280;50945;44.472;-123.352;2023-08-06T08:31:20;100868.41;;;20.43;59.47
64551;BME280;50945;44.472;-123.352;2023-08-06T08:33:46;100873.59;;;20.39;59.40
64551;BME280;50945;44.472;-123.352;2023-08-06T08:36:12;100869.38;;;20.37;59.32
64551;BME280;50945;44.472;-123.352;2023-08-06T08:38:38;100867.31;;;20.32;59.51
64551;BME280;50945;44.472;-123.352;2023-08-06T08:41:04;100871.41;;;20.29;59.42
64551;BME280;50945;44.472;-123.352;2023-08-06T08:43:31;100866.09;;;20.28;59.64
64551;BME280;50945;44.472;-123.352;2023-08-06T08:45:58;100869.09;;;20.26;59.65
64551;BME280;50945;44.472;-123.352;2023-08-06T08:48:25;100871.28;;;20.24;59.86
64551;BME280;50945;44.472;-123.352;2023-08-06T08:50:53;100874.06;;;20.24;59.73
64551;BME280;50945;44.472;-123.352;2023-08-06T08:53:21;100875.75;;;20.25;60.00
64551;BME280;50945;44.472;-123.352;2023-08-06T08:55:48;100869.34;;;20.25;59.93
64551;BME280;50945;44.472;-123.352;2023-08-06T08:58:15;100878.78;;;20.24;59.90
64551;BME280;50945;44.472;-123.352;2023-08-06T09:00:48;100867.66;;;20.24;60.08
64551;BME280;50945;44.472;-123.352;2023-08-06T09:03:14;100869.34;;;20.25;59.93
64551;BME280;50945;44.472;-123.352;2023-08-06T09:05:44;100869.94;;;20.27;59.96
64551;BME280;50945;44.472;-123.352;2023-08-06T09:08:12;100862.25;;;20.29;60.11
64551;BME280;50945;44.472;-123.352;2023-08-06T09:10:43;100870.31;;;20.30;59.81
64551;BME280;50945;44.472;-123.352;2023-08-06T09:13:10;100867.81;;;20.29;59.99
64551;BME280;50945;44.472;-123.352;2023-08-06T09:15:38;100867.66;;;20.24;59.92
64551;BME280;50945;44.472;-123.352;2023-08-06T09:18:11;100866.91;;;20.17;60.29
64551;BME280;50945;44.472;-123.352;2023-08-06T09:20:40;100871.72;;;20.09;60.39
64551;BME280;50945;44.472;-123.352;2023-08-06T09:23:10;100865.41;;;20.02;60.42
64551;BME280;50945;44.472;-123.352;2023-08-06T09:25:40;100874.91;;;19.94;60.62
64551;BME280;50945;44.472;-123.352;2023-08-06T09:28:06;100880.53;;;19.88;60.66
64551;BME280;50945;44.472;-123.352;2023-08-06T09:30:33;100885.81;;;19.78;63.42
64551;BME280;50945;44.472;-123.352;2023-08-06T09:33:00;100884.94;;;19.77;60.94
64551;BME280;50945;44.472;-123.352;2023-08-06T09:35:30;100880.72;;;19.74;60.81
64551;BME280;50945;44.472;-123.352;2023-08-06T09:38:07;100882.25;;;19.70;61.65
64551;BME280;50945;44.472;-123.352;2023-08-06T09:40:33;100891.03;;;19.67;61.22
64551;BME280;50945;44.472;-123.352;2023-08-06T09:43:00;100887.88;;;19.64;61.16
64551;BME280;50945;44.472;-123.352;2023-08-06T09:45:35;100893.88;;;19.61;61.86
64551;BME280;50945;44.472;-123.352;2023-08-06T09:48:05;100886.25;;;19.56;61.48
64551;BME280;50945;44.472;-123.352;2023-08-06T09:50:33;100888.66;;;19.52;61.71
64551;BME280;50945;44.472;-123.352;2023-08-06T09:53:02;100887.41;;;19.48;61.87
64551;BME280;50945;44.472;-123.352;2023-08-06T09:55:29;100891.50;;;19.46;61.81
64551;BME280;50945;44.472;-123.352;2023-08-06T09:57:55;100888.41;;;19.35;64.71
64551;BME280;50945;44.472;-123.352;2023-08-06T10:00:22;100891.41;;;19.34;61.84
64551;BME280;50945;44.472;-123.352;2023-08-06T10:02:49;100898.25;;;19.31;61.95
64551;BME280;50945;44.472;-123.352;2023-08-06T10:05:19;100894.47;;;19.26;62.25
64551;BME280;50945;44.472;-123.352;2023-08-06T10:07:45;100899.47;;;19.17;63.96
64551;BME280;50945;44.472;-123.352;2023-08-06T10:10:11;100901.59;;;19.15;62.20
64551;BME280;50945;44.472;-123.352;2023-08-06T10:12:41;100892.06;;;19.11;62.40
64551;BME280;50945;44.472;-123.352;2023-08-06T10:15:12;100897.44;;;19.06;62.57
64551;BME280;50945;44.472;-123.352;2023-08-06T10:17:40;100894.50;;;19.00;63.01
64551;BME280;50945;44.472;-123.352;2023-08-06T10:20:08;100895.19;;;18.96;63.07
64551;BME280;50945;44.472;-123.352;2023-08-06T10:22:34;100900.78;;;18.89;63.20
64551;BME280;50945;44.472;-123.352;2023-08-06T10:25:02;100898.91;;;18.83;63.56
64551;BME280;50945;44.472;-123.352;2023-08-06T10:27:32;100910.88;;;18.77;63.69
64551;BME280;50945;44.472;-123.352;2023-08-06T10:30:24;100909.25;;;18.69;65.42
64551;BME280;50945;44.472;-123.352;2023-08-06T10:32:52;100907.13;;;18.65;63.98
64551;BME280;50945;44.472;-123.352;2023-08-06T10:35:36;100909.94;;;18.58;65.01
64551;BME280;50945;44.472;-123.352;2023-08-06T10:38:04;100910.44;;;18.55;64.29
64551;BME280;50945;44.472;-123.352;2023-08-06T10:40:32;100911.09;;;18.50;64.47
64551;BME280;50945;44.472;-123.352;2023-08-06T10:43:00;100914.50;;;18.46;64.46
64551;BME280;50945;44.472;-123.352;2023-08-06T10:45:26;100916.88;;;18.42;64.78
64551;BME280;50945;44.472;-123.352;2023-08-06T10:47:55;100914.78;;;18.37;64.97
64551;BME280;50945;44.472;-123.352;2023-08-06T10:50:24;100917.16;;;18.34;64.81
64551;BME280;50945;44.472;-123.352;2023-08-06T10:52:51;100916.53;;;18.32;65.15
64551;BME280;50945;44.472;-123.352;2023-08-06T10:55:29;100918.66;;;18.30;66.39
64551;BME280;50945;44.472;-123.352;2023-08-06T10:57:56;100920.59;;;18.29;65.14
64551;BME280;50945;44.472;-123.352;2023-08-06T11:00:22;100921.88;;;18.27;65.22
64551;BME280;50945;44.472;-123.352;2023-08-06T11:02:52;100910.19;;;18.24;65.55
64551;BME280;50945;44.472;-123.352;2023-08-06T11:05:19;100907.88;;;18.21;65.51
64551;BME280;50945;44.472;-123.352;2023-08-06T11:07:45;100906.16;;;18.20;65.65
64551;BME280;50945;44.472;-123.352;2023-08-06T11:10:14;100915.75;;;18.18;65.88
64551;BME280;50945;44.472;-123.352;2023-08-06T11:12:40;100914.91;;;18.17;65.97
64551;BME280;50945;44.472;-123.352;2023-08-06T11:15:07;100917.03;;;18.15;66.02
64551;BME280;50945;44.472;-123.352;2023-08-06T11:17:34;100919.19;;;18.13;66.07
64551;BME280;50945;44.472;-123.352;2023-08-06T11:20:03;100916.84;;;18.10;66.27
64551;BME280;50945;44.472;-123.352;2023-08-06T11:22:30;100929.41;;;18.13;66.32
64551;BME280;50945;44.472;-123.352;2023-08-06T11:24:57;100920.28;;;18.12;66.21
64551;BME280;50945;44.472;-123.352;2023-08-06T11:27:26;100919.41;;;18.12;66.43
64551;BME280;50945;44.472;-123.352;2023-08-06T11:29:53;100921.94;;;18.13;66.31
64551;BME280;50945;44.472;-123.352;2023-08-06T11:32:19;100921.94;;;18.13;66.55
64551;BME280;50945;44.472;-123.352;2023-08-06T11:34:46;100920.91;;;18.14;66.46
64551;BME280;50945;44.472;-123.352;2023-08-06T11:37:12;100931.56;;;18.11;66.68
64551;BME280;50945;44.472;-123.352;2023-08-06T11:39:38;100931.16;;;18.07;66.67
64551;BME280;50945;44.472;-123.352;2023-08-06T11:42:12;100932.88;;;18.01;66.84
64551;BME280;50945;44.472;-123.352;2023-08-06T11:44:38;100929.28;;;17.94;67.02
64551;BME280;50945;44.472;-123.352;2023-08-06T11:47:04;100926.09;;;17.91;67.02
64551;BME280;50945;44.472;-123.352;2023-08-06T11:49:42;100924.84;;;17.86;67.43
64551;BME280;50945;44.472;-123.352;2023-08-06T11:52:15;100925.03;;;17.85;67.04
64551;BME280;50945;44.472;-123.352;2023-08-06T11:54:42;100926.13;;;17.84;66.94
64551;BME280;50945;44.472;-123.352;2023-08-06T11:57:09;100928.00;;;17.83;67.46
64551;BME280;50945;44.472;-123.352;2023-08-06T11:59:37;100930.78;;;17.83;67.39
64551;BME280;50945;44.472;-123.352;2023-08-06T12:02:05;100926.13;;;17.84;67.60
64551;BME280;50945;44.472;-123.352;2023-08-06T12:04:58;100930.38;;;17.86;69.36
64551;BME280;50945;44.472;-123.352;2023-08-06T12:07:30;100929.94;;;17.90;67.52
64551;BME280;50945;44.472;-123.352;2023-08-06T12:09:57;100933.13;;;17.93;67.22
64551;BME280;50945;44.472;-123.352;2023-08-06T12:12:24;100929.53;;;17.93;67.58
64551;BME280;50945;44.472;-123.352;2023-08-06T12:14:50;100938.88;;;17.92;67.51
64551;BME280;50945;44.472;-123.352;2023-08-06T12:17:16;100928.25;;;17.89;67.67
64551;BME280;50945;44.472;-123.352;2023-08-06T12:19:44;100932.09;;;17.88;67.62
64551;BME280;50945;44.472;-123.352;2023-08-06T12:22:12;100935.06;;;17.86;67.58
64551;BME280;50945;44.472;-123.352;2023-08-06T12:24:43;100941.63;;;17.85;67.77
64551;BME280;50945;44.472;-123.352;2023-08-06T12:27:10;100938.00;;;17.84;67.87